sensor_id;sensor_type;location;lat;lon;timestamp;P1;durP1;ratioP1;P2;durP2;ratioP2
17147;SDS011;8689;47.364;8.796;2024-03-23T00:53:32;4.00;;;3.37;;
17147;SDS011;8689;47.364;8.796;2024-03-23T00:55:59;3.93;;;3.53;;
17147;SDS011;8689;47.364;8.796;2024-03-23T00:58:25;3.83;;;3.53;;
17147;SDS011;8689;47.364;8.796;2024-03-23T01:00:53;3.77;;;3.47;;
17147;SDS011;8689;47.364;8.796;2024-03-23T01:03:19;4.13;;;3.73;;
17147;SDS011;8689;47.364;8.796;2024-03-23T01:05:46;4.10;;;3.47;;
17147;SDS011;8689;47.364;8.796;2024-03-23T01:08:13;3.90;;;3.70;;
17147;SDS011;8689;47.364;8.796;2024-03-23T01:10:42;4.03;;;3.60;;
17147;SDS011;8689;47.364;8.796;2024-03-23T01:13:18;3.73;;;3.43;;
17147;SDS011;8689;47.364;8.796;2024-03-23T01:15:48;3.60;;;3.30;;
17147;SDS011;8689;47.364;8.796;2024-03-23T01:18:14;4.77;;;3.93;;
17147;SDS011;8689;47.364;8.796;2024-03-23T01:20:41;7.23;;;4.30;;
17147;SDS011;8689;47.364;8.796;2024-03-23T01:23:07;5.10;;;4.20;;
17147;SDS011;8689;47.364;8.796;2024-03-23T01:25:34;5.90;;;3.73;;
17147;SDS011;8689;47.364;8.796;2024-03-23T01:28:02;6.20;;;3.60;;
17147;SDS011;8689;47.364;8.796;2024-03-23T01:30:31;3.97;;;3.57;;
17147;SDS011;8689;47.364;8.796;2024-03-23T01:32:57;3.37;;;3.17;;
17147;SDS011;8689;47.364;8.796;2024-03-23T01:35:24;3.50;;;3.30;;
17147;SDS011;8689;47.364;8.796;2024-03-23T01:37:50;4.70;;;4.40;;
17147;SDS011;8689;47.364;8.796;2024-03-23T01:40:18;3.80;;;3.50;;
17147;SDS011;8689;47.364;8.796;2024-03-23T01:42:54;3.47;;;3.27;;
17147;SDS011;8689;47.364;8.796;2024-03-23T01:45:23;3.37;;;2.50;;
17147;SDS011;8689;47.364;8.796;2024-03-23T01:47:50;3.93;;;3.63;;
17147;SDS011;8689;47.364;8.796;2024-03-23T01:50:17;4.00;;;3.33;;
17147;SDS011;8689;47.364;8.796;2024-03-23T01:52:44;3.90;;;3.50;;
17147;SDS011;8689;47.364;8.796;2024-03-23T01:55:11;4.30;;;3.40;;
17147;SDS011;8689;47.364;8.796;2024-03-23T01:57:37;8.13;;;3.60;;
17147;SDS011;8689;47.364;8.796;2024-03-23T02:00:05;3.40;;;3.20;;
17147;SDS011;8689;47.364;8.796;2024-03-23T02:02:33;3.27;;;3.07;;
17147;SDS011;8689;47.364;8.796;2024-03-23T02:05:00;3.23;;;3.03;;
17147;SDS011;8689;47.364;8.796;2024-03-23T02:07:27;3.77;;;3.40;;
17147;SDS011;8689;47.364;8.796;2024-03-23T02:09:54;4.33;;;3.93;;
17147;SDS011;8689;47.364;8.796;2024-03-23T02:12:21;4.20;;;3.90;;
17147;SDS011;8689;47.364;8.796;2024-03-23T02:14:48;3.97;;;3.67;;
17147;SDS011;8689;47.364;8.796;2024-03-23T02:17:14;4.67;;;3.37;;
17147;SDS011;8689;47.364;8.796;2024-03-23T02:19:42;4.20;;;3.67;;
17147;SDS011;8689;47.364;8.796;2024-03-23T02:22:08;4.13;;;3.40;;
17147;SDS011;8689;47.364;8.796;2024-03-23T02:24:38;3.77;;;3.30;;
17147;SDS011;8689;47.364;8.796;2024-03-23T02:27:04;4.00;;;3.70;;
17147;SDS011;8689;47.364;8.796;2024-03-23T02:29:31;4.93;;;3.93;;
17147;SDS011;8689;47.364;8.796;2024-03-23T02:31:57;3.90;;;3.70;;
17147;SDS011;8689;47.364;8.796;2024-03-23T02:34:25;4.30;;;4.00;;
17147;SDS011;8689;47.364;8.796;2024-03-23T02:36:51;6.80;;;3.67;;
17147;SDS011;8689;47.364;8.796;2024-03-23T02:39:18;4.20;;;3.80;;
17147;SDS011;8689;47.364;8.796;2024-03-23T02:41:45;3.93;;;3.63;;
17147;SDS011;8689;47.364;8.796;2024-03-23T02:44:13;4.10;;;3.80;;
17147;SDS011;8689;47.364;8.796;2024-03-23T02:46:39;4.30;;;3.63;;
17147;SDS011;8689;47.364;8.796;2024-03-23T02:49:07;4.37;;;3.97;;
17147;SDS011;8689;47.364;8.796;2024-03-23T02:51:33;4.00;;;3.57;;
17147;SDS011;8689;47.364;8.796;2024-03-23T02:54:00;3.50;;;3.30;;
17147;SDS011;8689;47.364;8.796;2024-03-23T02:56:26;3.80;;;3.10;;
17147;SDS011;8689;47.364;8.796;2024-03-23T02:58:55;3.53;;;3.23;;
17147;SDS011;8689;47.364;8.796;2024-03-23T03:01:21;3.87;;;3.63;;
17147;SDS011;8689;47.364;8.796;2024-03-23T03:03:48;8.43;;;4.07;;
17147;SDS011;8689;47.364;8.796;2024-03-23T03:06:22;4.90;;;4.37;;
17147;SDS011;8689;47.364;8.796;2024-03-23T03:08:49;4.33;;;4.00;;
17147;SDS011;8689;47.364;8.796;2024-03-23T03:11:15;4.40;;;3.47;;
17147;SDS011;8689;47.364;8.796;2024-03-23T03:13:42;3.90;;;3.60;;
17147;SDS011;8689;47.364;8.796;2024-03-23T03:16:10;3.87;;;3.57;;
17147;SDS011;8689;47.364;8.796;2024-03-23T03:18:37;4.23;;;3.93;;
17147;SDS011;8689;47.364;8.796;2024-03-23T03:21:03;4.33;;;3.50;;
17147;SDS011;8689;47.364;8.796;2024-03-23T03:23:35;4.10;;;3.80;;
17147;SDS011;8689;47.364;8.796;2024-03-23T03:26:01;4.33;;;3.93;;
17147;SDS011;8689;47.364;8.796;2024-03-23T03:28:29;5.20;;;4.23;;
17147;SDS011;8689;47.364;8.796;2024-03-23T03:30:56;4.10;;;3.80;;
17147;SDS011;8689;47.364;8.796;2024-03-23T03:33:24;3.83;;;3.53;;
17147;SDS011;8689;47.364;8.796;2024-03-23T03:35:51;6.33;;;3.87;;
17147;SDS011;8689;47.364;8.796;2024-03-23T03:38:18;4.07;;;3.77;;
17147;SDS011;8689;47.364;8.796;2024-03-23T03:40:44;4.30;;;4.00;;
17147;SDS011;8689;47.364;8.796;2024-03-23T03:43:12;4.07;;;3.77;;
17147;SDS011;8689;47.364;8.796;2024-03-23T03:45:37;3.77;;;3.57;;
17147;SDS011;8689;47.364;8.796;2024-03-23T03:48:05;3.87;;;3.53;;
17147;SDS011;8689;47.364;8.796;2024-03-23T03:50:33;4.10;;;3.73;;
17147;SDS011;8689;47.364;8.796;2024-03-23T03:53:01;3.80;;;3.60;;
17147;SDS011;8689;47.364;8.796;2024-03-23T03:55:27;4.27;;;3.60;;
17147;SDS011;8689;47.364;8.796;2024-03-23T03:57:54;4.40;;;4.10;;
17147;SDS011;8689;47.364;8.796;2024-03-23T04:00:20;3.83;;;3.60;;
17147;SDS011;8689;47.364;8.796;2024-03-23T04:02:47;4.40;;;3.67;;
17147;SDS011;8689;47.364;8.796;2024-03-23T04:05:13;8.27;;;3.50;;
17147;SDS011;8689;47.364;8.796;2024-03-23T04:07:42;4.20;;;3.83;;
17147;SDS011;8689;47.364;8.796;2024-03-23T04:10:09;4.47;;;4.00;;
17147;SDS011;8689;47.364;8.796;2024-03-23T04:12:36;4.13;;;3.87;;
17147;SDS011;8689;47.364;8.796;2024-03-23T04:15:02;6.90;;;3.60;;
17147;SDS011;8689;47.364;8.796;2024-03-23T04:17:30;4.40;;;4.10;;
17147;SDS011;8689;47.364;8.796;2024-03-23T04:19:57;6.10;;;4.10;;
17147;SDS011;8689;47.364;8.796;2024-03-23T04:22:24;3.73;;;3.10;;
17147;SDS011;8689;47.364;8.796;2024-03-23T04:24:53;3.87;;;3.50;;
17147;SDS011;8689;47.364;8.796;2024-03-23T04:27:20;4.00;;;3.70;;
17147;SDS011;8689;47.364;8.796;2024-03-23T04:29:48;3.93;;;3.73;;
17147;SDS011;8689;47.364;8.796;2024-03-23T04:32:15;3.50;;;3.23;;
17147;SDS011;8689;47.364;8.796;2024-03-23T04:34:42;6.40;;;4.00;;
17147;SDS011;8689;47.364;8.796;2024-03-23T04:37:09;3.83;;;3.63;;
17147;SDS011;8689;47.364;8.796;2024-03-23T04:39:37;3.90;;;3.60;;
17147;SDS011;8689;47.364;8.796;2024-03-23T04:42:06;4.27;;;3.97;;
17147;SDS011;8689;47.364;8.796;2024-03-23T04:44:33;4.37;;;4.10;;
17147;SDS011;8689;47.364;8.796;2024-03-23T04:47:00;6.73;;;3.67;;
17147;SDS011;8689;47.364;8.796;2024-03-23T04:49:27;4.90;;;4.50;;
17147;SDS011;8689;47.364;8.796;2024-03-23T04:51:53;4.23;;;4.03;;
17147;SDS011;8689;47.364;8.796;2024-03-23T04:54:20;4.97;;;3.83;;
17147;SDS011;8689;47.364;8.796;2024-03-23T04:56:48;4.23;;;3.93;;
17147;SDS011;8689;47.364;8.796;2024-03-23T04:59:16;3.90;;;3.70;;
17147;SDS011;8689;47.364;8.796;2024-03-23T05:01:43;5.43;;;4.00;;
17147;SDS011;8689;47.364;8.796;2024-03-23T05:04:09;3.60;;;3.40;;
17147;SDS011;8689;47.364;8.796;2024-03-23T05:06:36;5.17;;;3.60;;
17147;SDS011;8689;47.364;8.796;2024-03-23T05:09:02;3.83;;;3.40;;
17147;SDS011;8689;47.364;8.796;2024-03-23T05:11:31;3.00;;;2.80;;
17147;SDS011;8689;47.364;8.796;2024-03-23T05:13:58;3.17;;;2.73;;
17147;SDS011;8689;47.364;8.796;2024-03-23T05:16:26;3.40;;;3.10;;
17147;SDS011;8689;47.364;8.796;2024-03-23T05:18:53;4.07;;;3.77;;
17147;SDS011;8689;47.364;8.796;2024-03-23T05:21:20;3.87;;;3.53;;
17147;SDS011;8689;47.364;8.796;2024-03-23T05:23:46;6.70;;;3.53;;
17147;SDS011;8689;47.364;8.796;2024-03-23T05:26:13;3.33;;;3.13;;
17147;SDS011;8689;47.364;8.796;2024-03-23T05:28:40;4.23;;;3.30;;
17147;SDS011;8689;47.364;8.796;2024-03-23T05:31:07;3.93;;;3.63;;
17147;SDS011;8689;47.364;8.796;2024-03-23T05:33:36;3.43;;;3.13;;
17147;SDS011;8689;47.364;8.796;2024-03-23T05:36:04;3.50;;;3.20;;
17147;SDS011;8689;47.364;8.796;2024-03-23T05:38:31;4.20;;;3.80;;
17147;SDS011;8689;47.364;8.796;2024-03-23T05:40:59;3.90;;;3.53;;
17147;SDS011;8689;47.364;8.796;2024-03-23T05:43:27;3.37;;;3.07;;
17147;SDS011;8689;47.364;8.796;2024-03-23T05:45:59;5.50;;;4.00;;
17147;SDS011;8689;47.364;8.796;2024-03-23T05:48:26;3.77;;;3.57;;
17147;SDS011;8689;47.364;8.796;2024-03-23T05:50:57;4.60;;;3.37;;
17147;SDS011;8689;47.364;8.796;2024-03-23T05:53:27;4.23;;;3.87;;
17147;SDS011;8689;47.364;8.796;2024-03-23T05:56:00;10.13;;;5.07;;
17147;SDS011;8689;47.364;8.796;2024-03-23T05:58:28;5.33;;;4.83;;
17147;SDS011;8689;47.364;8.796;2024-03-23T06:00:57;6.83;;;5.17;;
17147;SDS011;8689;47.364;8.796;2024-03-23T06:03:26;9.13;;;6.17;;
17147;SDS011;8689;47.364;8.796;2024-03-23T06:09:10;6.03;;;5.07;;
17147;SDS011;8689;47.364;8.796;2024-03-23T06:11:38;8.40;;;5.70;;
17147;SDS011;8689;47.364;8.796;2024-03-23T06:14:07;5.50;;;5.00;;
17147;SDS011;8689;47.364;8.796;2024-03-23T06:16:34;7.93;;;4.90;;
17147;SDS011;8689;47.364;8.796;2024-03-23T06:19:00;6.20;;;5.60;;
17147;SDS011;8689;47.364;8.796;2024-03-23T06:21:31;6.53;;;5.43;;
17147;SDS011;8689;47.364;8.796;2024-03-23T06:23:57;7.73;;;5.97;;
17147;SDS011;8689;47.364;8.796;2024-03-23T06:26:24;7.40;;;5.40;;
17147;SDS011;8689;47.364;8.796;2024-03-23T06:28:50;6.67;;;5.23;;
17147;SDS011;8689;47.364;8.796;2024-03-23T06:31:18;7.47;;;5.53;;
17147;SDS011;8689;47.364;8.796;2024-03-23T06:33:44;7.60;;;5.27;;
17147;SDS011;8689;47.364;8.796;2024-03-23T06:36:11;5.50;;;4.93;;
17147;SDS011;8689;47.364;8.796;2024-03-23T06:38:39;5.70;;;5.00;;
17147;SDS011;8689;47.364;8.796;2024-03-23T06:41:06;6.70;;;5.93;;
17147;SDS011;8689;47.364;8.796;2024-03-23T06:43:33;6.77;;;5.80;;
17147;SDS011;8689;47.364;8.796;2024-03-23T06:46:01;6.97;;;6.27;;
17147;SDS011;8689;47.364;8.796;2024-03-23T06:48:29;8.97;;;5.67;;
17147;SDS011;8689;47.364;8.796;2024-03-23T06:50:56;6.73;;;6.03;;
17147;SDS011;8689;47.364;8.796;2024-03-23T06:53:24;7.53;;;5.83;;
17147;SDS011;8689;47.364;8.796;2024-03-23T06:55:52;5.87;;;5.27;;
17147;SDS011;8689;47.364;8.796;2024-03-23T06:58:20;7.27;;;5.70;;
17147;SDS011;8689;47.364;8.796;2024-03-23T07:00:47;8.93;;;6.80;;
17147;SDS011;8689;47.364;8.796;2024-03-23T07:03:15;6.50;;;5.90;;
17147;SDS011;8689;47.364;8.796;2024-03-23T07:05:42;10.80;;;6.33;;
17147;SDS011;8689;47.364;8.796;2024-03-23T07:08:09;10.83;;;6.57;;
17147;SDS011;8689;47.364;8.796;2024-03-23T07:10:35;9.97;;;6.23;;
17147;SDS011;8689;47.364;8.796;2024-03-23T07:13:07;8.80;;;6.67;;
17147;SDS011;8689;47.364;8.796;2024-03-23T07:15:33;8.07;;;6.70;;
17147;SDS011;8689;47.364;8.796;2024-03-23T07:18:00;7.53;;;5.40;;
17147;SDS011;8689;47.364;8.796;2024-03-23T07:20:26;8.33;;;5.20;;
17147;SDS011;8689;47.364;8.796;2024-03-23T07:22:55;9.63;;;5.23;;
17147;SDS011;8689;47.364;8.796;2024-03-23T07:25:22;5.73;;;5.13;;
17147;SDS011;8689;47.364;8.796;2024-03-23T07:27:50;7.60;;;5.27;;
17147;SDS011;8689;47.364;8.796;2024-03-23T07:30:20;7.43;;;5.70;;
17147;SDS011;8689;47.364;8.796;2024-03-23T07:32:47;5.63;;;5.03;;
17147;SDS011;8689;47.364;8.796;2024-03-23T07:35:13;7.67;;;5.80;;
17147;SDS011;8689;47.364;8.796;2024-03-23T07:37:41;6.10;;;5.50;;
17147;SDS011;8689;47.364;8.796;2024-03-23T07:40:08;6.47;;;5.57;;
17147;SDS011;8689;47.364;8.796;2024-03-23T07:42:37;7.53;;;5.43;;
17147;SDS011;8689;47.364;8.796;2024-03-23T07:45:06;7.43;;;5.47;;
17147;SDS011;8689;47.364;8.796;2024-03-23T07:47:36;4.67;;;4.27;;
17147;SDS011;8689;47.364;8.796;2024-03-23T07:50:03;6.70;;;4.57;;
17147;SDS011;8689;47.364;8.796;2024-03-23T07:52:45;6.67;;;4.97;;
17147;SDS011;8689;47.364;8.796;2024-03-23T07:55:13;5.80;;;4.77;;
17147;SDS011;8689;47.364;8.796;2024-03-23T07:57:39;8.20;;;4.10;;
17147;SDS011;8689;47.364;8.796;2024-03-23T08:00:10;6.53;;;4.67;;
17147;SDS011;8689;47.364;8.796;2024-03-23T08:03:15;4.30;;;3.90;;
17147;SDS011;8689;47.364;8.796;2024-03-23T08:05:42;6.97;;;3.97;;
17147;SDS011;8689;47.364;8.796;2024-03-23T08:08:09;4.47;;;4.07;;
17147;SDS011;8689;47.364;8.796;2024-03-23T08:10:36;4.37;;;3.97;;
17147;SDS011;8689;47.364;8.796;2024-03-23T08:13:02;3.70;;;3.40;;
17147;SDS011;8689;47.364;8.796;2024-03-23T08:15:31;3.20;;;2.80;;
17147;SDS011;8689;47.364;8.796;2024-03-23T08:18:04;2.30;;;2.20;;
17147;SDS011;8689;47.364;8.796;2024-03-23T08:20:40;2.67;;;2.57;;
17147;SDS011;8689;47.364;8.796;2024-03-23T08:23:06;2.50;;;2.40;;
17147;SDS011;8689;47.364;8.796;2024-03-23T08:25:34;2.67;;;2.47;;
17147;SDS011;8689;47.364;8.796;2024-03-23T08:28:01;2.60;;;2.50;;
17147;SDS011;8689;47.364;8.796;2024-03-23T08:30:28;2.80;;;2.70;;
17147;SDS011;8689;47.364;8.796;2024-03-23T08:32:56;3.63;;;2.80;;
17147;SDS011;8689;47.364;8.796;2024-03-23T08:35:27;2.73;;;2.63;;
17147;SDS011;8689;47.364;8.796;2024-03-23T08:37:55;2.20;;;2.10;;
17147;SDS011;8689;47.364;8.796;2024-03-23T08:40:23;2.97;;;2.87;;
17147;SDS011;8689;47.364;8.796;2024-03-23T08:42:49;2.47;;;2.20;;
17147;SDS011;8689;47.364;8.796;2024-03-23T08:45:16;2.37;;;2.27;;
17147;SDS011;8689;47.364;8.796;2024-03-23T08:47:42;2.60;;;2.50;;
17147;SDS011;8689;47.364;8.796;2024-03-23T08:50:10;3.00;;;2.50;;
17147;SDS011;8689;47.364;8.796;2024-03-23T08:52:38;2.40;;;2.30;;
17147;SDS011;8689;47.364;8.796;2024-03-23T08:55:12;2.67;;;2.57;;
17147;SDS011;8689;47.364;8.796;2024-03-23T08:57:38;2.43;;;2.33;;
17147;SDS011;8689;47.364;8.796;2024-03-23T09:00:09;2.47;;;2.37;;
17147;SDS011;8689;47.364;8.796;2024-03-23T09:02:36;2.87;;;2.73;;
17147;SDS011;8689;47.364;8.796;2024-03-23T09:05:05;3.03;;;2.90;;
17147;SDS011;8689;47.364;8.796;2024-03-23T09:07:32;3.23;;;3.10;;
17147;SDS011;8689;47.364;8.796;2024-03-23T09:09:58;3.90;;;3.50;;
17147;SDS011;8689;47.364;8.796;2024-03-23T09:12:26;3.60;;;3.30;;
17147;SDS011;8689;47.364;8.796;2024-03-23T09:14:53;4.97;;;3.60;;
17147;SDS011;8689;47.364;8.796;2024-03-23T09:17:19;4.60;;;3.67;;
17147;SDS011;8689;47.364;8.796;2024-03-23T09:19:46;3.57;;;3.37;;
17147;SDS011;8689;47.364;8.796;2024-03-23T09:22:12;5.37;;;3.20;;
17147;SDS011;8689;47.364;8.796;2024-03-23T09:24:39;5.40;;;4.17;;
17147;SDS011;8689;47.364;8.796;2024-03-23T09:27:05;4.67;;;3.50;;
17147;SDS011;8689;47.364;8.796;2024-03-23T09:29:34;5.90;;;3.93;;
17147;SDS011;8689;47.364;8.796;2024-03-23T09:32:00;5.50;;;3.67;;
17147;SDS011;8689;47.364;8.796;2024-03-23T09:34:27;5.30;;;3.83;;
17147;SDS011;8689;47.364;8.796;2024-03-23T09:36:53;5.23;;;4.17;;
17147;SDS011;8689;47.364;8.796;2024-03-23T09:39:21;4.50;;;4.10;;
17147;SDS011;8689;47.364;8.796;2024-03-23T09:41:46;4.83;;;4.20;;
17147;SDS011;8689;47.364;8.796;2024-03-23T09:44:14;5.27;;;4.83;;
17147;SDS011;8689;47.364;8.796;2024-03-23T09:46:41;5.90;;;4.07;;
17147;SDS011;8689;47.364;8.796;2024-03-23T09:49:08;7.70;;;4.93;;
17147;SDS011;8689;47.364;8.796;2024-03-23T09:51:35;6.43;;;4.70;;
17147;SDS011;8689;47.364;8.796;2024-03-23T09:54:03;6.90;;;5.47;;
17147;SDS011;8689;47.364;8.796;2024-03-23T09:56:29;4.63;;;4.00;;
17147;SDS011;8689;47.364;8.796;2024-03-23T09:59:02;10.30;;;4.67;;
17147;SDS011;8689;47.364;8.796;2024-03-23T10:01:29;7.60;;;4.70;;
17147;SDS011;8689;47.364;8.796;2024-03-23T10:03:58;8.13;;;4.93;;
17147;SDS011;8689;47.364;8.796;2024-03-23T10:06:24;4.60;;;4.20;;
17147;SDS011;8689;47.364;8.796;2024-03-23T10:08:52;6.97;;;4.60;;
17147;SDS011;8689;47.364;8.796;2024-03-23T10:11:19;5.90;;;5.30;;
17147;SDS011;8689;47.364;8.796;2024-03-23T10:13:47;8.60;;;5.17;;
17147;SDS011;8689;47.364;8.796;2024-03-23T10:16:20;12.87;;;4.90;;
17147;SDS011;8689;47.364;8.796;2024-03-23T10:18:48;8.47;;;4.50;;
17147;SDS011;8689;47.364;8.796;2024-03-23T10:21:16;5.03;;;4.57;;
17147;SDS011;8689;47.364;8.796;2024-03-23T10:23:44;9.27;;;5.23;;
17147;SDS011;8689;47.364;8.796;2024-03-23T10:26:16;7.73;;;5.77;;
17147;SDS011;8689;47.364;8.796;2024-03-23T10:28:54;6.87;;;4.67;;
17147;SDS011;8689;47.364;8.796;2024-03-23T10:31:23;4.93;;;4.63;;
17147;SDS011;8689;47.364;8.796;2024-03-23T10:33:50;8.83;;;4.70;;
17147;SDS011;8689;47.364;8.796;2024-03-23T10:36:21;8.10;;;4.40;;
17147;SDS011;8689;47.364;8.796;2024-03-23T10:38:49;4.87;;;4.47;;
17147;SDS011;8689;47.364;8.796;2024-03-23T10:41:16;6.77;;;4.50;;
17147;SDS011;8689;47.364;8.796;2024-03-23T10:43:45;7.90;;;4.67;;
17147;SDS011;8689;47.364;8.796;2024-03-23T10:46:11;5.17;;;4.43;;
17147;SDS011;8689;47.364;8.796;2024-03-23T10:48:39;6.70;;;4.83;;
17147;SDS011;8689;47.364;8.796;2024-03-23T10:51:06;7.87;;;5.67;;
17147;SDS011;8689;47.364;8.796;2024-03-23T10:53:36;8.47;;;4.73;;
17147;SDS011;8689;47.364;8.796;2024-03-23T10:56:04;6.13;;;4.57;;
17147;SDS011;8689;47.364;8.796;2024-03-23T10:58:32;8.13;;;4.70;;
17147;SDS011;8689;47.364;8.796;2024-03-23T11:01:02;5.00;;;4.30;;
17147;SDS011;8689;47.364;8.796;2024-03-23T11:03:31;10.20;;;4.53;;
17147;SDS011;8689;47.364;8.796;2024-03-23T11:05:58;5.27;;;4.40;;
17147;SDS011;8689;47.364;8.796;2024-03-23T11:08:37;7.90;;;4.17;;
17147;SDS011;8689;47.364;8.796;2024-03-23T11:11:13;6.07;;;4.30;;
17147;SDS011;8689;47.364;8.796;2024-03-23T11:13:43;7.53;;;4.43;;
17147;SDS011;8689;47.364;8.796;2024-03-23T11:16:15;4.77;;;4.27;;
17147;SDS011;8689;47.364;8.796;2024-03-23T11:18:43;9.10;;;5.03;;
17147;SDS011;8689;47.364;8.796;2024-03-23T11:21:09;4.67;;;4.23;;
17147;SDS011;8689;47.364;8.796;2024-03-23T11:23:38;9.60;;;4.30;;
17147;SDS011;8689;47.364;8.796;2024-03-23T11:26:07;6.50;;;5.07;;
17147;SDS011;8689;47.364;8.796;2024-03-23T11:28:34;8.30;;;4.77;;
17147;SDS011;8689;47.364;8.796;2024-03-23T11:31:00;4.53;;;3.63;;
17147;SDS011;8689;47.364;8.796;2024-03-23T11:33:27;8.07;;;5.10;;
17147;SDS011;8689;47.364;8.796;2024-03-23T11:35:54;6.67;;;4.40;;
17147;SDS011;8689;47.364;8.796;2024-03-23T11:38:21;7.60;;;4.20;;
17147;SDS011;8689;47.364;8.796;2024-03-23T11:40:49;4.73;;;4.33;;
17147;SDS011;8689;47.364;8.796;2024-03-23T11:43:16;5.70;;;4.10;;
17147;SDS011;8689;47.364;8.796;2024-03-23T11:45:44;10.23;;;4.43;;
17147;SDS011;8689;47.364;8.796;2024-03-23T11:48:12;6.27;;;4.53;;
17147;SDS011;8689;47.364;8.796;2024-03-23T11:50:40;5.93;;;4.50;;
17147;SDS011;8689;47.364;8.796;2024-03-23T11:53:09;5.90;;;4.20;;
17147;SDS011;8689;47.364;8.796;2024-03-23T11:55:45;7.83;;;4.53;;
17147;SDS011;8689;47.364;8.796;2024-03-23T11:58:17;6.17;;;4.40;;
17147;SDS011;8689;47.364;8.796;2024-03-23T12:00:49;5.43;;;3.93;;
17147;SDS011;8689;47.364;8.796;2024-03-23T12:03:18;8.77;;;4.90;;
17147;SDS011;8689;47.364;8.796;2024-03-23T12:05:58;5.00;;;4.07;;
17147;SDS011;8689;47.364;8.796;2024-03-23T12:08:30;4.87;;;4.33;;
17147;SDS011;8689;47.364;8.796;2024-03-23T12:11:05;4.37;;;3.70;;
17147;SDS011;8689;47.364;8.796;2024-03-23T12:13:37;4.23;;;3.90;;
17147;SDS011;8689;47.364;8.796;2024-03-23T12:16:10;6.80;;;3.97;;
17147;SDS011;8689;47.364;8.796;2024-03-23T12:18:50;3.80;;;3.47;;
17147;SDS011;8689;47.364;8.796;2024-03-23T12:21:17;3.70;;;3.03;;
17147;SDS011;8689;47.364;8.796;2024-03-23T12:23:47;3.47;;;3.17;;
17147;SDS011;8689;47.364;8.796;2024-03-23T12:26:15;5.07;;;3.30;;
17147;SDS011;8689;47.364;8.796;2024-03-23T12:28:45;3.83;;;3.40;;
17147;SDS011;8689;47.364;8.796;2024-03-23T12:31:11;3.07;;;2.30;;
17147;SDS011;8689;47.364;8.796;2024-03-23T12:33:39;5.13;;;2.73;;
17147;SDS011;8689;47.364;8.796;2024-03-23T12:36:08;2.60;;;2.40;;
17147;SDS011;8689;47.364;8.796;2024-03-23T12:38:38;2.67;;;2.47;;
17147;SDS011;8689;47.364;8.796;2024-03-23T12:41:04;2.80;;;2.37;;
17147;SDS011;8689;47.364;8.796;2024-03-23T12:43:31;5.50;;;2.60;;
17147;SDS011;8689;47.364;8.796;2024-03-23T12:45:59;5.27;;;2.53;;
17147;SDS011;8689;47.364;8.796;2024-03-23T12:48:26;4.00;;;2.67;;
17147;SDS011;8689;47.364;8.796;2024-03-23T12:50:54;3.90;;;2.83;;
17147;SDS011;8689;47.364;8.796;2024-03-23T12:53:22;3.97;;;3.07;;
17147;SDS011;8689;47.364;8.796;2024-03-23T12:55:48;4.70;;;3.30;;
17147;SDS011;8689;47.364;8.796;2024-03-23T13:04:24;6.13;;;3.77;;
17147;SDS011;8689;47.364;8.796;2024-03-23T13:06:52;6.47;;;2.93;;
17147;SDS011;8689;47.364;8.796;2024-03-23T13:09:22;6.70;;;3.70;;
17147;SDS011;8689;47.364;8.796;2024-03-23T13:11:51;6.70;;;3.40;;
17147;SDS011;8689;47.364;8.796;2024-03-23T13:14:21;5.33;;;3.67;;
17147;SDS011;8689;47.364;8.796;2024-03-23T13:16:49;5.30;;;2.63;;
17147;SDS011;8689;47.364;8.796;2024-03-23T13:19:15;4.27;;;3.00;;
17147;SDS011;8689;47.364;8.796;2024-03-23T13:21:44;4.23;;;2.87;;
17147;SDS011;8689;47.364;8.796;2024-03-23T13:24:10;3.77;;;2.40;;
17147;SDS011;8689;47.364;8.796;2024-03-23T13:26:37;7.23;;;2.60;;
17147;SDS011;8689;47.364;8.796;2024-03-23T13:29:03;5.30;;;3.33;;
17147;SDS011;8689;47.364;8.796;2024-03-23T13:31:30;4.23;;;3.17;;
17147;SDS011;8689;47.364;8.796;2024-03-23T13:33:56;5.17;;;2.80;;
17147;SDS011;8689;47.364;8.796;2024-03-23T13:36:24;2.90;;;2.30;;
17147;SDS011;8689;47.364;8.796;2024-03-23T13:38:52;4.60;;;2.10;;
17147;SDS011;8689;47.364;8.796;2024-03-23T13:41:19;6.20;;;2.33;;
17147;SDS011;8689;47.364;8.796;2024-03-23T13:43:46;4.07;;;1.97;;
17147;SDS011;8689;47.364;8.796;2024-03-23T13:46:13;2.23;;;2.00;;
17147;SDS011;8689;47.364;8.796;2024-03-23T13:48:39;4.87;;;2.60;;
17147;SDS011;8689;47.364;8.796;2024-03-23T13:51:07;4.40;;;3.53;;
17147;SDS011;8689;47.364;8.796;2024-03-23T13:53:33;2.40;;;2.20;;
17147;SDS011;8689;47.364;8.796;2024-03-23T13:56:03;4.87;;;2.30;;
17147;SDS011;8689;47.364;8.796;2024-03-23T13:58:29;5.53;;;2.40;;
17147;SDS011;8689;47.364;8.796;2024-03-23T14:00:58;3.97;;;1.80;;
17147;SDS011;8689;47.364;8.796;2024-03-23T14:03:24;7.30;;;2.37;;
17147;SDS011;8689;47.364;8.796;2024-03-23T14:05:54;3.80;;;1.80;;
17147;SDS011;8689;47.364;8.796;2024-03-23T14:08:23;3.93;;;2.37;;
17147;SDS011;8689;47.364;8.796;2024-03-23T14:10:50;3.57;;;1.90;;
17147;SDS011;8689;47.364;8.796;2024-03-23T14:13:18;3.00;;;2.30;;
17147;SDS011;8689;47.364;8.796;2024-03-23T14:15:45;5.30;;;2.33;;
17147;SDS011;8689;47.364;8.796;2024-03-23T14:18:12;7.53;;;2.93;;
17147;SDS011;8689;47.364;8.796;2024-03-23T14:20:39;5.50;;;2.73;;
17147;SDS011;8689;47.364;8.796;2024-03-23T14:23:05;3.23;;;2.80;;
17147;SDS011;8689;47.364;8.796;2024-03-23T14:25:33;7.50;;;2.60;;
17147;SDS011;8689;47.364;8.796;2024-03-23T14:27:59;4.90;;;2.97;;
17147;SDS011;8689;47.364;8.796;2024-03-23T14:30:29;6.70;;;2.97;;
17147;SDS011;8689;47.364;8.796;2024-03-23T14:32:56;3.70;;;2.90;;
17147;SDS011;8689;47.364;8.796;2024-03-23T14:35:24;5.93;;;3.40;;
17147;SDS011;8689;47.364;8.796;2024-03-23T14:37:54;3.20;;;2.90;;
17147;SDS011;8689;47.364;8.796;2024-03-23T14:40:24;3.20;;;2.77;;
17147;SDS011;8689;47.364;8.796;2024-03-23T14:42:51;5.67;;;3.57;;
17147;SDS011;8689;47.364;8.796;2024-03-23T14:45:19;3.17;;;2.97;;
17147;SDS011;8689;47.364;8.796;2024-03-23T14:47:47;3.80;;;3.30;;
17147;SDS011;8689;47.364;8.796;2024-03-23T14:50:14;3.63;;;3.20;;
17147;SDS011;8689;47.364;8.796;2024-03-23T14:52:41;3.63;;;3.40;;
17147;SDS011;8689;47.364;8.796;2024-03-23T14:55:10;6.50;;;3.60;;
17147;SDS011;8689;47.364;8.796;2024-03-23T14:57:36;6.00;;;3.67;;
17147;SDS011;8689;47.364;8.796;2024-03-23T15:00:05;5.63;;;3.90;;
17147;SDS011;8689;47.364;8.796;2024-03-23T15:02:32;6.67;;;3.63;;
17147;SDS011;8689;47.364;8.796;2024-03-23T15:05:01;4.90;;;3.43;;
17147;SDS011;8689;47.364;8.796;2024-03-23T15:07:29;4.30;;;3.10;;
17147;SDS011;8689;47.364;8.796;2024-03-23T15:09:56;7.10;;;3.90;;
17147;SDS011;8689;47.364;8.796;2024-03-23T15:12:22;7.07;;;4.17;;
17147;SDS011;8689;47.364;8.796;2024-03-23T15:14:49;5.23;;;3.83;;
17147;SDS011;8689;47.364;8.796;2024-03-23T15:17:15;5.53;;;3.77;;
17147;SDS011;8689;47.364;8.796;2024-03-23T15:19:43;3.67;;;2.80;;
17147;SDS011;8689;47.364;8.796;2024-03-23T15:22:11;4.70;;;2.90;;
17147;SDS011;8689;47.364;8.796;2024-03-23T15:24:38;5.10;;;3.53;;
17147;SDS011;8689;47.364;8.796;2024-03-23T15:27:05;4.27;;;3.97;;
17147;SDS011;8689;47.364;8.796;2024-03-23T15:29:34;6.37;;;3.50;;
17147;SDS011;8689;47.364;8.796;2024-03-23T15:32:01;5.10;;;3.37;;
17147;SDS011;8689;47.364;8.796;2024-03-23T15:34:28;7.53;;;3.90;;
17147;SDS011;8689;47.364;8.796;2024-03-23T15:36:55;9.33;;;3.70;;
17147;SDS011;8689;47.364;8.796;2024-03-23T15:39:23;5.03;;;3.50;;
17147;SDS011;8689;47.364;8.796;2024-03-23T15:41:49;3.93;;;3.30;;
17147;SDS011;8689;47.364;8.796;2024-03-23T15:44:17;4.30;;;3.43;;
17147;SDS011;8689;47.364;8.796;2024-03-23T15:46:43;5.83;;;3.60;;
17147;SDS011;8689;47.364;8.796;2024-03-23T15:49:10;7.50;;;3.40;;
17147;SDS011;8689;47.364;8.796;2024-03-23T15:51:36;3.13;;;2.80;;
17147;SDS011;8689;47.364;8.796;2024-03-23T15:54:05;5.63;;;3.53;;
17147;SDS011;8689;47.364;8.796;2024-03-23T15:56:32;4.57;;;3.43;;
17147;SDS011;8689;47.364;8.796;2024-03-23T15:58:59;6.43;;;3.90;;
17147;SDS011;8689;47.364;8.796;2024-03-23T16:01:30;8.73;;;4.33;;
17147;SDS011;8689;47.364;8.796;2024-03-23T16:03:58;5.10;;;3.57;;
17147;SDS011;8689;47.364;8.796;2024-03-23T16:06:25;4.60;;;3.70;;